Nespelem, WA (99155)

9:46 AM PST on January 27, 2015 (GMT -0800)
RAWS KRAMER WA US | Change Station
CLOSE
Current Station
Personal Weather Station
Location: Okanogan, WA
Elevation: 2720 ft
Nearby Weather Stations

Elev 2720 ft 48.26 °N, 119.52 °W | Updated 38 minutes ago

Fog
Fog
34 °F
Feels Like 30 °F
N
4
Wind Variable Wind from NNW
Gusts 6.0 mph

Today
High -- | Low -- °F
--% Chance of Precip.
Yesterday
High -- | Low -- °F
Precip. -- in
7:31 AM 4:48 PM
First Quarter, 56% visible
Pressure 30.04 in
Visibility 0.5 miles
Clouds
Windchill 30 °F
Dew Point 34 °F
Humidity 100%
Rainfall 0.00 in
Snow Depth Not available.
UV Not available.
Pollen 1.40 out of 12
Air Quality Not available.
Flu Activity Not available.
SPECI KOMK 271731Z AUTO 00000KT 1/2SM FG VV003 01/00 A3004 RMK AO2 T00060000

More Conditions Fewer Conditions

Pressure 30.04 in
Visibility 0.5 miles
Clouds
Windchill 30 °F
Dew Point 34 °F
Humidity 100%
Rainfall 0.00 in
Snow Depth Not available.
UV Not available.
Pollen 1.40 out of 12
Air Quality Not available.
Flu Activity Not available.
SPECI KOMK 271731Z AUTO 00000KT 1/2SM FG VV003 01/00 A3004 RMK AO2 T00060000

More Conditions Fewer Conditions

10-Day Weather Forecast

Almanac

Astronomy

Jan. 27, 2015 Rise Set
Actual Time
Civil Twilight
Nautical Twilight
Astronomical Twilight
Moon
Length of Visible Light
Length of Day
Tomorrow will be .
, % of the Moon is Illuminated

Today's Extremes

State Highs State Lows

Community

WunderPhotos

Upload Photos

1,790,741 photos uploaded!

WunderBlogs® & News

Nearby

Air Quality

  Air Quality AQ Index Pollutant
Not available.

Snow Depth

Station Depth Elevation

Earthquake Activity

City Distance Mag. Time & Date
Minimum magnitude displayed is 2.5.

Coastal Water Temperatures

Place Temperature

Nearby Weather Stations